sensor_id;sensor_type;location;lat;lon;timestamp;pressure;altitude;pressure_sealevel;temperature;humidity
45939;BME280;31650;48.818;9.116;2023-04-06T00:04:44;98211.44;;;-2.37;100.00
45939;BME280;31650;48.818;9.116;2023-04-06T00:19:44;98208.41;;;-2.53;100.00
45939;BME280;31650;48.818;9.116;2023-04-06T00:34:45;98211.78;;;-2.51;100.00
45939;BME280;31650;48.818;9.116;2023-04-06T00:49:45;98192.22;;;-2.00;100.00
45939;BME280;31650;48.818;9.116;2023-04-06T01:04:45;98176.81;;;-2.06;100.00
45939;BME280;31650;48.818;9.116;2023-04-06T01:19:45;98182.22;;;-2.18;100.00
45939;BME280;31650;48.818;9.116;2023-04-06T01:34:46;98175.75;;;-2.55;100.00
45939;BME280;31650;48.818;9.116;2023-04-06T01:49:46;98168.28;;;-2.31;100.00
45939;BME280;31650;48.818;9.116;2023-04-06T02:04:47;98163.00;;;-2.83;100.00
45939;BME280;31650;48.818;9.116;2023-04-06T02:19:47;98160.75;;;-3.08;100.00
45939;BME280;31650;48.818;9.116;2023-04-06T02:34:47;98155.81;;;-3.13;100.00
45939;BME280;31650;48.818;9.116;2023-04-06T02:49:47;98152.69;;;-3.18;100.00
45939;BME280;31650;48.818;9.116;2023-04-06T03:04:48;98150.47;;;-3.13;100.00
45939;BME280;31650;48.818;9.116;2023-04-06T03:19:48;98143.22;;;-3.53;100.00
45939;BME280;31650;48.818;9.116;2023-04-06T03:34:48;98145.91;;;-3.32;100.00
45939;BME280;31650;48.818;9.116;2023-04-06T03:49:48;98146.84;;;-3.33;100.00
45939;BME280;31650;48.818;9.116;2023-04-06T04:04:48;98165.91;;;-3.49;100.00
45939;BME280;31650;48.818;9.116;2023-04-06T04:19:49;98170.97;;;-3.46;100.00
45939;BME280;31650;48.818;9.116;2023-04-06T04:34:49;98173.59;;;-3.78;100.00
45939;BME280;31650;48.818;9.116;2023-04-06T04:49:49;98184.13;;;-3.88;100.00
45939;BME280;31650;48.818;9.116;2023-04-06T05:04:50;98176.53;;;-3.49;100.00
45939;BME280;31650;48.818;9.116;2023-04-06T05:19:50;98191.66;;;-3.28;100.00
45939;BME280;31650;48.818;9.116;2023-04-06T05:34:50;98200.31;;;-2.73;100.00
45939;BME280;31650;48.818;9.116;2023-04-06T05:49:51;98191.31;;;-0.73;100.00
45939;BME280;31650;48.818;9.116;2023-04-06T06:04:51;98169.19;;;0.19;100.00
45939;BME280;31650;48.818;9.116;2023-04-06T06:19:51;98182.53;;;0.47;100.00
45939;BME280;31650;48.818;9.116;2023-04-06T06:34:51;98178.16;;;1.00;96.70
45939;BME280;31650;48.818;9.116;2023-04-06T06:49:52;98184.63;;;1.59;94.32
45939;BME280;31650;48.818;9.116;2023-04-06T07:04:58;98169.66;;;2.92;83.17
45939;BME280;31650;48.818;9.116;2023-04-06T07:19:59;98175.50;;;5.64;70.95
45939;BME280;31650;48.818;9.116;2023-04-06T07:35:02;98159.19;;;8.10;59.80
45939;BME280;31650;48.818;9.116;2023-04-06T07:50:10;98160.44;;;9.57;56.46
45939;BME280;31650;48.818;9.116;2023-04-06T08:05:10;98145.78;;;10.11;53.63
45939;BME280;31650;48.818;9.116;2023-04-06T08:20:14;98152.22;;;10.82;50.10
45939;BME280;31650;48.818;9.116;2023-04-06T08:35:14;98152.16;;;10.95;44.92
45939;BME280;31650;48.818;9.116;2023-04-06T08:50:14;98145.88;;;11.77;42.29
45939;BME280;31650;48.818;9.116;2023-04-06T09:05:16;98136.13;;;12.31;42.60
45939;BME280;31650;48.818;9.116;2023-04-06T09:20:21;98127.03;;;12.86;41.72
45939;BME280;31650;48.818;9.116;2023-04-06T09:35:22;98127.97;;;13.40;39.67
45939;BME280;31650;48.818;9.116;2023-04-06T09:50:22;98112.19;;;14.01;37.32
45939;BME280;31650;48.818;9.116;2023-04-06T10:05:38;98115.84;;;13.06;37.95
45939;BME280;31650;48.818;9.116;2023-04-06T10:35:49;98097.00;;;14.45;36.70
45939;BME280;31650;48.818;9.116;2023-04-06T10:50:50;98085.31;;;14.62;35.52
45939;BME280;31650;48.818;9.116;2023-04-06T11:05:50;98083.63;;;14.20;34.88
45939;BME280;31650;48.818;9.116;2023-04-06T11:20:51;98071.81;;;15.01;33.36
45939;BME280;31650;48.818;9.116;2023-04-06T11:35:51;98048.09;;;16.57;34.37
45939;BME280;31650;48.818;9.116;2023-04-06T11:50:55;98039.91;;;14.61;33.61
45939;BME280;31650;48.818;9.116;2023-04-06T12:05:56;98034.50;;;14.95;33.35
45939;BME280;31650;48.818;9.116;2023-04-06T12:20:56;98027.19;;;15.00;33.92
45939;BME280;31650;48.818;9.116;2023-04-06T12:35:56;98014.78;;;14.23;32.51
45939;BME280;31650;48.818;9.116;2023-04-06T12:50:57;97987.78;;;16.62;30.57
45939;BME280;31650;48.818;9.116;2023-04-06T13:05:58;97979.06;;;16.97;34.22
45939;BME280;31650;48.818;9.116;2023-04-06T13:20:59;97971.78;;;16.54;31.65
45939;BME280;31650;48.818;9.116;2023-04-06T13:35:59;97954.00;;;16.61;30.39
45939;BME280;31650;48.818;9.116;2023-04-06T13:51:07;97954.78;;;15.64;31.00
45939;BME280;31650;48.818;9.116;2023-04-06T14:06:11;97948.75;;;15.06;31.31
45939;BME280;31650;48.818;9.116;2023-04-06T14:21:11;97945.72;;;14.90;34.39
45939;BME280;31650;48.818;9.116;2023-04-06T14:36:12;97937.28;;;15.09;30.73
45939;BME280;31650;48.818;9.116;2023-04-06T14:51:12;97935.28;;;15.21;32.34
45939;BME280;31650;48.818;9.116;2023-04-06T15:06:13;97915.56;;;15.63;34.85
45939;BME280;31650;48.818;9.116;2023-04-06T15:21:15;97930.47;;;14.95;32.26
45939;BME280;31650;48.818;9.116;2023-04-06T15:36:22;97927.97;;;14.31;32.64
45939;BME280;31650;48.818;9.116;2023-04-06T15:51:23;97945.59;;;13.18;34.96
45939;BME280;31650;48.818;9.116;2023-04-06T16:06:23;97941.66;;;13.03;36.01
45939;BME280;31650;48.818;9.116;2023-04-06T16:21:26;97947.81;;;12.32;37.07
45939;BME280;31650;48.818;9.116;2023-04-06T16:36:28;97960.16;;;11.86;39.78
45939;BME280;31650;48.818;9.116;2023-04-06T16:51:28;97950.72;;;11.52;42.54
45939;BME280;31650;48.818;9.116;2023-04-06T17:06:30;97956.38;;;10.88;37.92
45939;BME280;31650;48.818;9.116;2023-04-06T17:21:31;97969.72;;;10.65;38.94
45939;BME280;31650;48.818;9.116;2023-04-06T17:36:31;97982.66;;;10.38;38.70
45939;BME280;31650;48.818;9.116;2023-04-06T17:51:31;97978.97;;;10.26;40.71
45939;BME280;31650;48.818;9.116;2023-04-06T18:06:31;98008.97;;;9.99;42.83
45939;BME280;31650;48.818;9.116;2023-04-06T18:21:32;98010.72;;;9.73;44.23
45939;BME280;31650;48.818;9.116;2023-04-06T18:36:33;98014.59;;;9.26;45.89
45939;BME280;31650;48.818;9.116;2023-04-06T18:51:33;98029.84;;;9.07;47.28
45939;BME280;31650;48.818;9.116;2023-04-06T19:06:33;98048.81;;;9.00;48.23
45939;BME280;31650;48.818;9.116;2023-04-06T19:21:33;98061.53;;;9.13;46.96
45939;BME280;31650;48.818;9.116;2023-04-06T19:36:34;98057.78;;;9.34;46.25
45939;BME280;31650;48.818;9.116;2023-04-06T19:51:34;98056.09;;;9.33;48.30
45939;BME280;31650;48.818;9.116;2023-04-06T20:06:35;98049.47;;;9.02;49.91
45939;BME280;31650;48.818;9.116;2023-04-06T20:21:35;98056.72;;;8.75;53.66
45939;BME280;31650;48.818;9.116;2023-04-06T20:36:35;98062.56;;;8.72;55.73
45939;BME280;31650;48.818;9.116;2023-04-06T20:51:35;98068.34;;;8.49;58.26
45939;BME280;31650;48.818;9.116;2023-04-06T21:06:36;98073.22;;;8.19;61.12
45939;BME280;31650;48.818;9.116;2023-04-06T21:21:36;98076.66;;;7.58;75.28
45939;BME280;31650;48.818;9.116;2023-04-06T21:36:36;98086.63;;;6.58;100.00
45939;BME280;31650;48.818;9.116;2023-04-06T21:51:37;98084.03;;;6.28;100.00
45939;BME280;31650;48.818;9.116;2023-04-06T22:06:37;98086.41;;;6.02;100.00
45939;BME280;31650;48.818;9.116;2023-04-06T22:21:37;98081.09;;;5.79;100.00
45939;BME280;31650;48.818;9.116;2023-04-06T22:36:37;98083.13;;;5.62;100.00
45939;BME280;31650;48.818;9.116;2023-04-06T22:51:38;98076.25;;;5.44;100.00
45939;BME280;31650;48.818;9.116;2023-04-06T23:06:40;98052.94;;;5.37;100.00
45939;BME280;31650;48.818;9.116;2023-04-06T23:21:41;98032.25;;;5.29;100.00
45939;BME280;31650;48.818;9.116;2023-04-06T23:36:41;98024.28;;;5.21;100.00
45939;BME280;31650;48.818;9.116;2023-04-06T23:51:42;98014.16;;;5.23;100.00
